createdAt,value
2023-09-10T00:08:30.582Z,6.75
2023-09-10T00:13:32.371Z,7.88
2023-09-10T00:18:34.084Z,7.47
2023-09-10T00:23:37.104Z,7.47
2023-09-10T00:28:39.050Z,7.97
2023-09-10T00:38:43.743Z,7.70
2023-09-10T00:43:45.581Z,7.10
2023-09-10T00:48:47.784Z,7.15
2023-09-10T00:53:50.950Z,8.38
2023-09-10T00:58:53.544Z,7.88
2023-09-10T01:03:55.988Z,7.95
2023-09-10T01:08:58.976Z,7.30
2023-09-10T01:14:10.087Z,7.25
2023-09-10T01:19:45.095Z,7.10
2023-09-10T01:24:51.211Z,7.60
2023-09-10T01:29:52.873Z,8.60
2023-09-10T01:35:00.539Z,6.70
2023-09-10T01:40:09.021Z,7.47
2023-09-10T01:45:11.626Z,7.80
2023-09-10T01:50:13.984Z,7.75
2023-09-10T01:55:17.067Z,7.70
2023-09-10T02:00:18.808Z,7.07
2023-09-10T02:05:20.511Z,6.88
2023-09-10T02:10:23.893Z,6.75
2023-09-10T02:15:25.841Z,6.90
2023-09-10T02:20:27.549Z,7.75
2023-09-10T02:25:32.621Z,8.38
2023-09-10T02:30:34.407Z,8.65
2023-09-10T02:35:36.076Z,7.22
2023-09-10T02:40:39.123Z,7.63
2023-09-10T02:45:41.147Z,6.72
2023-09-10T02:50:43.081Z,7.45
2023-09-10T02:55:46.210Z,6.93
2023-09-10T03:00:48.178Z,7.30
2023-09-10T03:05:50.264Z,7.40
2023-09-10T03:10:53.424Z,7.05
2023-09-10T03:15:55.252Z,8.38
2023-09-10T03:20:57.086Z,7.10
2023-09-10T03:26:00.768Z,6.90
2023-09-10T03:31:03.377Z,7.15
2023-09-10T03:36:05.942Z,6.88
2023-09-10T03:41:09.272Z,7.35
2023-09-10T03:46:12.220Z,6.70
2023-09-10T03:51:14.211Z,5.95
2023-09-10T03:56:17.360Z,7.20
2023-09-10T04:01:20.147Z,6.68
2023-09-10T04:06:22.078Z,6.97
2023-09-10T04:11:25.982Z,7.75
2023-09-10T04:16:27.839Z,7.50
2023-09-10T04:21:29.649Z,6.97
2023-09-10T04:26:32.694Z,6.75
2023-09-10T04:31:37.640Z,7.50
2023-09-10T04:36:39.472Z,5.90
2023-09-10T04:41:42.715Z,7.88
2023-09-10T04:46:44.729Z,8.13
2023-09-10T04:51:46.522Z,7.75
2023-09-10T04:56:49.795Z,7.38
2023-09-10T05:01:51.749Z,7.35
2023-09-10T05:06:53.672Z,8.27
2023-09-10T05:11:56.924Z,8.00
2023-09-10T05:16:59.545Z,6.63
2023-09-10T05:22:01.789Z,7.13
2023-09-10T05:27:05.293Z,6.75
2023-09-10T05:32:07.201Z,6.32
2023-09-10T05:37:09.006Z,7.50
2023-09-10T05:42:12.163Z,7.43
2023-09-10T05:47:14.067Z,7.72
2023-09-10T05:52:15.888Z,7.70
2023-09-10T06:02:21.627Z,7.32
2023-09-10T06:07:23.538Z,7.55
2023-09-10T06:12:26.746Z,7.70
2023-09-10T06:17:29.288Z,7.80
2023-09-10T06:22:31.093Z,9.02
2023-09-10T06:27:34.339Z,8.98
2023-09-10T06:32:36.381Z,8.15
2023-09-10T06:37:39.709Z,7.43
2023-09-10T06:42:44.677Z,7.35
2023-09-10T06:48:04.872Z,10.48
2023-09-10T06:53:06.652Z,7.65
2023-09-10T06:58:09.738Z,7.72
2023-09-10T07:03:11.668Z,8.95
2023-09-10T07:13:16.651Z,8.00
2023-09-10T07:18:18.265Z,7.43
2023-09-10T07:23:19.961Z,6.97
2023-09-10T07:28:23.107Z,7.45
2023-09-10T07:33:24.727Z,6.88
2023-09-10T07:38:26.709Z,7.43
2023-09-10T07:43:29.799Z,6.97
2023-09-10T07:48:31.418Z,7.13
2023-09-10T07:53:33.137Z,6.95
2023-09-10T08:03:38.349Z,6.15
2023-09-10T08:08:40.333Z,6.72
2023-09-10T08:13:43.461Z,5.60
2023-09-10T08:18:45.174Z,7.18
2023-09-10T08:23:46.853Z,6.72
2023-09-10T08:28:49.932Z,7.05
2023-09-10T08:33:51.588Z,6.22
2023-09-10T08:38:53.231Z,6.90
2023-09-10T08:43:58.190Z,6.93
2023-09-10T08:49:00.931Z,7.10
2023-09-10T08:54:03.091Z,5.93
2023-09-10T08:59:07.519Z,7.47
2023-09-10T09:04:11.367Z,6.72
2023-09-10T09:09:15.953Z,6.18
2023-09-10T09:14:19.949Z,5.47
2023-09-10T09:19:22.596Z,6.40
2023-09-10T09:24:24.568Z,6.70
2023-09-10T09:29:28.690Z,5.80
2023-09-10T09:34:30.888Z,5.90
2023-09-10T09:39:32.537Z,5.13
2023-09-10T09:44:35.626Z,5.35
2023-09-10T09:49:43.540Z,5.82
2023-09-10T09:54:46.122Z,6.13
2023-09-10T09:59:50.312Z,5.32
2023-09-10T10:04:55.188Z,5.25
2023-09-10T10:09:59.790Z,5.03
2023-09-10T10:15:03.346Z,5.70
2023-09-10T10:20:07.390Z,5.60
2023-09-10T10:25:09.852Z,5.40
2023-09-10T10:30:14.537Z,5.00
2023-09-10T10:35:16.945Z,5.05
2023-09-10T10:40:20.128Z,5.25
2023-09-10T10:45:26.054Z,4.30
2023-09-10T10:50:28.945Z,4.20
2023-09-10T10:55:31.580Z,4.38
2023-09-10T11:00:34.836Z,4.00
2023-09-10T11:06:02.524Z,4.70
2023-09-10T11:11:05.732Z,4.20
2023-09-10T11:16:18.460Z,4.65
2023-09-10T11:26:31.639Z,4.07
2023-09-10T11:31:39.652Z,4.07
2023-09-10T11:36:43.426Z,4.50
2023-09-10T11:41:46.580Z,3.97
2023-09-10T11:46:50.583Z,4.53
2023-09-10T11:51:54.537Z,4.45
2023-09-10T11:56:57.641Z,4.22
2023-09-10T12:02:01.055Z,4.13
2023-09-10T12:07:03.604Z,4.45
2023-09-10T12:12:09.930Z,4.40
2023-09-10T12:17:13.621Z,3.78
2023-09-10T12:22:15.416Z,4.30
2023-09-10T12:27:17.162Z,4.10
2023-09-10T12:32:21.117Z,3.90
2023-09-10T12:37:22.755Z,4.00
2023-09-10T12:42:24.808Z,4.75
2023-09-10T12:47:27.911Z,4.22
2023-09-10T12:52:29.632Z,5.38
2023-09-10T12:57:31.677Z,4.20
2023-09-10T13:02:36.041Z,5.00
2023-09-10T13:07:37.852Z,4.60
2023-09-10T13:12:40.178Z,4.20
2023-09-10T13:17:43.301Z,4.57
2023-09-10T13:22:45.291Z,4.82
2023-09-10T13:27:47.105Z,5.78
2023-09-10T13:32:50.211Z,3.88
2023-09-10T13:37:51.946Z,4.72
2023-09-10T13:42:53.630Z,4.47
2023-09-10T13:47:56.905Z,4.97
2023-09-10T13:52:58.653Z,4.60
2023-09-10T13:58:00.384Z,4.95
2023-09-10T14:03:04.461Z,4.32
2023-09-10T14:08:06.801Z,5.18
2023-09-10T14:13:08.577Z,4.57
2023-09-10T14:18:11.628Z,4.25
2023-09-10T14:23:13.371Z,4.47
2023-09-10T14:28:15.563Z,4.80
2023-09-10T14:33:18.668Z,4.45
2023-09-10T14:38:20.360Z,4.75
2023-09-10T14:43:22.072Z,5.50
2023-09-10T14:48:25.128Z,5.20
2023-09-10T14:53:26.866Z,5.03
2023-09-10T14:58:28.661Z,4.50
2023-09-10T15:03:31.740Z,5.75
2023-09-10T15:08:33.968Z,4.47
2023-09-10T15:13:35.709Z,5.22
2023-09-10T15:18:38.703Z,5.45
2023-09-10T15:23:41.766Z,4.53
2023-09-10T15:28:43.626Z,5.05
2023-09-10T15:33:46.616Z,5.43
2023-09-10T15:38:48.318Z,4.68
2023-09-10T15:43:50.012Z,5.30
2023-09-10T15:48:53.149Z,5.03
2023-09-10T15:53:54.804Z,5.75
2023-09-10T15:58:56.505Z,5.13
2023-09-10T16:03:59.600Z,4.82
2023-09-10T16:09:02.229Z,4.78
2023-09-10T16:14:05.543Z,4.97
2023-09-10T16:19:08.647Z,4.75
2023-09-10T16:24:10.333Z,4.32
2023-09-10T16:29:11.989Z,4.93
2023-09-10T16:34:15.073Z,4.82
2023-09-10T16:39:16.696Z,4.80
2023-09-10T16:44:19.913Z,4.32
2023-09-10T16:49:23.380Z,5.22
2023-09-10T16:54:25.042Z,4.85
2023-09-10T16:59:26.833Z,4.38
2023-09-10T17:04:29.910Z,5.50
2023-09-10T17:09:31.975Z,5.22
2023-09-10T17:14:33.976Z,4.93
2023-09-10T17:19:37.100Z,5.85
2023-09-10T17:24:38.821Z,4.93
2023-09-10T17:29:40.536Z,5.53
2023-09-10T17:34:43.600Z,5.72
2023-09-10T17:39:45.255Z,6.07
2023-09-10T17:44:47.355Z,5.75
2023-09-10T17:50:03.246Z,5.93
2023-09-10T17:55:08.164Z,6.57
2023-09-10T18:00:10.379Z,5.75
2023-09-10T18:05:13.388Z,6.60
2023-09-10T18:10:15.474Z,5.72
2023-09-10T18:15:17.197Z,6.43
2023-09-10T18:20:20.488Z,6.03
2023-09-10T18:25:22.222Z,6.38
2023-09-10T18:30:23.955Z,6.80
2023-09-10T18:35:27.038Z,6.68
2023-09-10T18:40:28.721Z,6.55
2023-09-10T18:45:30.372Z,6.60
2023-09-10T18:50:33.508Z,6.65
2023-09-10T18:55:35.290Z,7.25
2023-09-10T19:00:37.098Z,7.20
2023-09-10T19:05:43.258Z,6.18
2023-09-10T19:10:45.435Z,6.78
2023-09-10T19:15:50.705Z,6.32
2023-09-10T19:20:54.444Z,7.10
2023-09-10T19:25:56.114Z,6.97
2023-09-10T19:30:57.793Z,7.60
2023-09-10T19:36:04.525Z,6.45
2023-09-10T19:41:06.156Z,7.88
2023-09-10T19:46:07.773Z,7.07
2023-09-10T19:51:10.811Z,6.85
2023-09-10T19:56:13.058Z,6.70
2023-09-10T20:01:14.758Z,7.68
2023-09-10T20:06:17.936Z,7.57
2023-09-10T20:11:20.146Z,7.72
2023-09-10T20:16:22.163Z,6.95
2023-09-10T20:21:25.287Z,8.43
2023-09-10T20:26:28.781Z,7.45
2023-09-10T20:31:31.908Z,8.60
2023-09-10T20:36:34.914Z,7.65
2023-09-10T20:41:36.725Z,7.22
2023-09-10T20:46:38.505Z,8.07
2023-09-10T20:51:41.572Z,7.22
2023-09-10T20:56:43.270Z,6.85
2023-09-10T21:01:44.996Z,7.28
2023-09-10T21:06:48.232Z,6.97
2023-09-10T21:11:50.368Z,7.35
2023-09-10T21:16:52.255Z,7.97
2023-09-10T21:21:55.389Z,7.40
2023-09-10T21:26:57.036Z,7.13
2023-09-10T21:37:02.005Z,7.28
2023-09-10T21:42:04.160Z,7.65
2023-09-10T21:47:06.648Z,7.40
2023-09-10T21:52:09.879Z,8.52
2023-09-10T21:57:11.581Z,6.53
2023-09-10T22:07:16.164Z,7.38
2023-09-10T22:12:18.044Z,7.15
2023-09-10T22:17:20.183Z,7.38
2023-09-10T22:22:23.294Z,7.60
2023-09-10T22:27:24.982Z,7.82
2023-09-10T22:32:26.693Z,7.90
2023-09-10T22:42:31.212Z,7.53
2023-09-10T22:52:35.919Z,7.57
2023-09-10T22:57:37.591Z,8.52
2023-09-10T23:02:39.494Z,7.93
2023-09-10T23:07:42.666Z,7.65
2023-09-10T23:12:44.740Z,6.82
2023-09-10T23:17:46.774Z,7.57
2023-09-10T23:22:57.626Z,7.50
2023-09-10T23:27:59.240Z,6.50
2023-09-10T23:33:00.973Z,7.40
2023-09-10T23:43:06.045Z,7.03
2023-09-10T23:48:07.816Z,7.88
2023-09-10T23:58:12.409Z,6.95
